Time;durP1;ratioP1;P1;durP2;ratioP2;P2;SDS_P1;SDS_P2;PMS_P1;PMS_P2;Temp;Humidity;BMP_temperature;BMP_pressure;BME280_temperature;BME280_humidity;BME280_pressure;Samples;Min_cycle;Max_cycle;Signal;HPM_P1;HPM_P2
2021/12/22 00:00:58;;;;;;;62.10;26.07;;;;;;;;;;5067412;28;20036;-74
2021/12/22 00:03:25;;;;;;;61.40;25.27;;;;;;;;;;5066409;28;21203;-74
2021/12/22 00:05:52;;;;;;;59.83;25.80;;;;;;;;;;5078390;28;20559;-73
2021/12/22 00:08:18;;;;;;;54.30;24.30;;;;;;;;;;5062572;28;20032;-74
2021/12/22 00:10:49;;;;;;;60.93;27.77;;;;;;;;;;5064965;28;20033;-75
2021/12/22 00:13:15;;;;;;;52.90;23.80;;;;;;;;;;5061792;28;20028;-74
2021/12/22 00:15:40;;;;;;;58.97;24.63;;;;;;;;;;5066168;28;20043;-74
2021/12/22 00:18:06;;;;;;;70.93;29.47;;;;;;;;;;5068324;28;20436;-74
2021/12/22 00:20:32;;;;;;;64.47;25.17;;;;;;;;;;5068662;28;20479;-73
2021/12/22 00:22:57;;;;;;;62.00;24.97;;;;;;;;;;5067834;28;20086;-74
2021/12/22 00:25:25;;;;;;;50.20;23.97;;;;;;;;;;5066695;28;20500;-74
2021/12/22 00:27:56;;;;;;;58.63;24.33;;;;;;;;;;5069183;28;20101;-75
2021/12/22 00:30:24;;;;;;;58.83;26.90;;;;;;;;;;5068573;28;20071;-74
2021/12/22 00:32:52;;;;;;;58.83;23.90;;;;;;;;;;5068753;28;20080;-73
2021/12/22 00:35:23;;;;;;;60.97;25.27;;;;;;;;;;5071330;28;20043;-73
2021/12/22 00:37:49;;;;;;;54.70;25.53;;;;;;;;;;5070185;28;20032;-74
2021/12/22 00:40:14;;;;;;;57.60;25.80;;;;;;;;;;5070815;28;20063;-74
2021/12/22 00:42:40;;;;;;;64.17;25.27;;;;;;;;;;5071363;28;20329;-74
2021/12/22 00:45:06;;;;;;;60.03;26.10;;;;;;;;;;5071939;28;20048;-74
2021/12/22 00:47:32;;;;;;;66.97;26.73;;;;;;;;;;5071897;28;20024;-74
2021/12/22 00:49:59;;;;;;;55.57;25.70;;;;;;;;;;5072187;28;20043;-74
2021/12/22 00:52:25;;;;;;;52.87;25.40;;;;;;;;;;5067623;28;20250;-73
2021/12/22 00:54:51;;;;;;;63.53;26.33;;;;;;;;;;5066008;28;20052;-74
2021/12/22 00:57:17;;;;;;;59.20;25.10;;;;;;;;;;5085616;28;20119;-74
2021/12/22 00:59:45;;;;;;;60.00;26.90;;;;;;;;;;5067370;28;20516;-73
2021/12/22 01:02:14;;;;;;;61.40;24.77;;;;;;;;;;5072601;28;20051;-74
2021/12/22 01:04:40;;;;;;;54.53;25.10;;;;;;;;;;5050457;28;20052;-74
2021/12/22 01:07:06;;;;;;;52.60;23.80;;;;;;;;;;5068323;28;20169;-74
2021/12/22 01:09:32;;;;;;;58.97;23.97;;;;;;;;;;5070359;28;20036;-74
2021/12/22 01:11:58;;;;;;;61.10;25.23;;;;;;;;;;5071019;28;21873;-74
2021/12/22 01:14:24;;;;;;;63.60;24.83;;;;;;;;;;5070569;28;20036;-75
2021/12/22 01:16:53;;;;;;;64.77;24.67;;;;;;;;;;5072436;28;20032;-75
2021/12/22 01:19:27;;;;;;;59.47;24.90;;;;;;;;;;5073078;28;20123;-74
2021/12/22 01:22:02;;;;;;;47.30;22.43;;;;;;;;;;5083304;28;20043;-75
2021/12/22 01:24:34;;;;;;;61.33;23.27;;;;;;;;;;5087158;28;20032;-74
2021/12/22 01:27:08;;;;;;;55.50;23.80;;;;;;;;;;5074940;28;20096;-75
2021/12/22 01:29:36;;;;;;;63.27;22.83;;;;;;;;;;5070582;28;20036;-73
2021/12/22 01:32:02;;;;;;;55.60;23.27;;;;;;;;;;5077463;28;20579;-75
2021/12/22 01:34:28;;;;;;;50.97;22.77;;;;;;;;;;5072737;28;20116;-75
2021/12/22 01:36:53;;;;;;;52.33;23.13;;;;;;;;;;5073808;28;20116;-75
2021/12/22 01:39:19;;;;;;;60.83;23.33;;;;;;;;;;5069689;28;20055;-74
2021/12/22 01:41:45;;;;;;;57.50;25.40;;;;;;;;;;5068396;28;20059;-75
2021/12/22 01:44:13;;;;;;;60.07;22.83;;;;;;;;;;5060338;28;20330;-75
2021/12/22 01:49:10;;;;;;;53.17;24.30;;;;;;;;;;5068342;28;20024;-76
2021/12/22 01:52:11;;;;;;;51.17;23.47;;;;;;;;;;5056297;28;20029;-75
2021/12/22 01:54:50;;;;;;;48.67;21.00;;;;;;;;;;5047655;28;20399;-75
2021/12/22 01:57:17;;;;;;;45.23;21.27;;;;;;;;;;5062136;28;20090;-74
2021/12/22 01:59:46;;;;;;;50.53;21.87;;;;;;;;;;5068689;28;20423;-73
2021/12/22 02:02:14;;;;;;;50.00;21.57;;;;;;;;;;5080108;28;20048;-73
2021/12/22 02:04:41;;;;;;;56.90;24.37;;;;;;;;;;5070220;28;20024;-73
2021/12/22 02:07:08;;;;;;;56.07;21.53;;;;;;;;;;5069600;28;20056;-73
2021/12/22 02:11:59;;;;;;;53.60;23.23;;;;;;;;;;5071314;28;20028;-73
2021/12/22 02:14:25;;;;;;;53.73;22.00;;;;;;;;;;5071474;28;20031;-74
2021/12/22 02:16:50;;;;;;;50.10;21.93;;;;;;;;;;5063136;28;20064;-71
2021/12/22 02:19:16;;;;;;;44.67;19.77;;;;;;;;;;5058118;28;20029;-74
2021/12/22 02:21:48;;;;;;;55.43;23.13;;;;;;;;;;5065891;28;20103;-72
2021/12/22 02:24:13;;;;;;;52.55;22.05;;;;;;;;;;5069707;28;20032;-71
2021/12/22 02:26:44;;;;;;;47.80;19.77;;;;;;;;;;5071176;28;20090;-73
2021/12/22 02:29:22;;;;;;;55.50;20.73;;;;;;;;;;5069379;28;20028;-72
2021/12/22 02:32:19;;;;;;;50.57;20.83;;;;;;;;;;5066551;28;20659;-72
2021/12/22 02:34:47;;;;;;;50.60;19.23;;;;;;;;;;5069528;28;20048;-74
2021/12/22 02:37:17;;;;;;;47.83;19.53;;;;;;;;;;5072373;28;20462;-73
2021/12/22 02:39:57;;;;;;;47.77;19.27;;;;;;;;;;5066633;28;20032;-73
2021/12/22 02:42:25;;;;;;;42.00;17.60;;;;;;;;;;5064928;28;20017;-72
2021/12/22 02:44:51;;;;;;;39.67;18.37;;;;;;;;;;5066821;28;20028;-73
2021/12/22 02:47:25;;;;;;;50.30;20.73;;;;;;;;;;5069550;28;20028;-73
2021/12/22 02:49:50;;;;;;;49.70;19.70;;;;;;;;;;5069520;28;20024;-73
2021/12/22 02:52:17;;;;;;;47.87;18.37;;;;;;;;;;5068551;28;20028;-72
2021/12/22 02:54:52;;;;;;;46.77;18.67;;;;;;;;;;5069533;28;20052;-73
2021/12/22 03:05:22;;;;;;;47.13;20.93;;;;;;;;;;5070380;28;20036;-72
2021/12/22 03:07:48;;;;;;;57.90;21.70;;;;;;;;;;5052036;28;20391;-73
2021/12/22 03:10:17;;;;;;;48.87;20.17;;;;;;;;;;5068419;28;20108;-73
2021/12/22 03:12:44;;;;;;;51.03;19.83;;;;;;;;;;5068424;28;20508;-72
2021/12/22 03:15:10;;;;;;;46.77;21.67;;;;;;;;;;5069632;28;20099;-73
2021/12/22 03:17:39;;;;;;;44.83;17.87;;;;;;;;;;5068746;28;20081;-73
2021/12/22 03:20:08;;;;;;;44.50;20.17;;;;;;;;;;5069483;28;20028;-73
2021/12/22 03:22:35;;;;;;;41.23;18.80;;;;;;;;;;5068339;28;20028;-73
2021/12/22 03:25:00;;;;;;;52.73;20.40;;;;;;;;;;5067654;28;20024;-73
2021/12/22 03:27:26;;;;;;;49.10;20.23;;;;;;;;;;5069278;28;20472;-74
2021/12/22 03:29:52;;;;;;;54.93;21.47;;;;;;;;;;5069906;28;20325;-73
2021/12/22 03:32:18;;;;;;;51.97;21.23;;;;;;;;;;5070031;28;20031;-72
2021/12/22 03:34:43;;;;;;;53.60;22.03;;;;;;;;;;5070418;28;20467;-73
2021/12/22 03:37:10;;;;;;;47.20;20.53;;;;;;;;;;5070383;28;20056;-73
2021/12/22 03:39:37;;;;;;;55.33;21.03;;;;;;;;;;5070032;28;20107;-73
2021/12/22 03:42:07;;;;;;;56.90;21.63;;;;;;;;;;5068975;28;20024;-72
2021/12/22 03:44:32;;;;;;;48.63;20.17;;;;;;;;;;5068721;28;20028;-73
2021/12/22 03:47:00;;;;;;;45.03;19.60;;;;;;;;;;5067516;28;20032;-73
2021/12/22 03:49:26;;;;;;;49.37;20.70;;;;;;;;;;5069226;28;20028;-73
2021/12/22 03:51:52;;;;;;;48.07;21.37;;;;;;;;;;5069688;28;20036;-73
2021/12/22 03:54:17;;;;;;;49.40;20.23;;;;;;;;;;5067918;28;20035;-73
2021/12/22 03:56:43;;;;;;;47.40;18.47;;;;;;;;;;5069712;28;20420;-73
2021/12/22 03:59:09;;;;;;;49.33;18.20;;;;;;;;;;5067641;28;20032;-72
2021/12/22 04:01:35;;;;;;;56.23;21.57;;;;;;;;;;5069481;28;20025;-72
2021/12/22 04:04:07;;;;;;;54.17;20.60;;;;;;;;;;5069131;28;20024;-72
2021/12/22 04:06:32;;;;;;;54.30;20.95;;;;;;;;;;5068688;28;20025;-72
2021/12/22 04:08:58;;;;;;;46.73;20.13;;;;;;;;;;5071857;28;20033;-72
2021/12/22 04:11:23;;;;;;;52.17;20.17;;;;;;;;;;5073348;28;20036;-73
2021/12/22 04:13:49;;;;;;;49.53;19.80;;;;;;;;;;5071760;28;20024;-73
2021/12/22 04:16:14;;;;;;;56.60;20.20;;;;;;;;;;5071466;28;20029;-73
2021/12/22 04:18:40;;;;;;;54.20;22.23;;;;;;;;;;5071141;28;20066;-73
2021/12/22 04:21:05;;;;;;;46.23;20.90;;;;;;;;;;5071983;28;20033;-73
2021/12/22 04:23:31;;;;;;;53.07;20.33;;;;;;;;;;5072042;28;20392;-72
2021/12/22 04:25:57;;;;;;;48.23;21.30;;;;;;;;;;5070948;28;20456;-72
2021/12/22 04:28:22;;;;;;;57.73;21.93;;;;;;;;;;5072280;28;20418;-72
2021/12/22 04:30:50;;;;;;;57.60;19.43;;;;;;;;;;5072980;28;20032;-74
2021/12/22 04:33:19;;;;;;;49.77;20.03;;;;;;;;;;5072376;28;20090;-72
2021/12/22 04:35:45;;;;;;;49.00;19.53;;;;;;;;;;5071280;28;20028;-73
2021/12/22 04:38:11;;;;;;;44.50;19.80;;;;;;;;;;5071242;28;20067;-72
2021/12/22 04:40:37;;;;;;;52.03;21.80;;;;;;;;;;5071385;28;20445;-73
2021/12/22 04:43:03;;;;;;;48.27;19.27;;;;;;;;;;5072831;28;20029;-72
2021/12/22 04:45:28;;;;;;;46.90;19.93;;;;;;;;;;5071151;28;20109;-73
2021/12/22 04:47:54;;;;;;;49.00;21.47;;;;;;;;;;5071146;28;20055;-74
2021/12/22 04:50:22;;;;;;;52.77;20.53;;;;;;;;;;5071058;28;20033;-72
2021/12/22 04:52:58;;;;;;;49.47;20.47;;;;;;;;;;5072737;28;20028;-73
2021/12/22 04:55:25;;;;;;;46.10;18.97;;;;;;;;;;5072426;28;20029;-73
2021/12/22 04:57:52;;;;;;;56.93;22.00;;;;;;;;;;5071094;28;20059;-73
2021/12/22 05:00:19;;;;;;;47.93;21.47;;;;;;;;;;5072419;28;20435;-73
2021/12/22 05:02:45;;;;;;;53.63;22.20;;;;;;;;;;5070778;28;20085;-73
2021/12/22 05:05:11;;;;;;;54.13;21.27;;;;;;;;;;5070821;28;20048;-73
2021/12/22 05:07:37;;;;;;;55.00;21.03;;;;;;;;;;5070916;28;20495;-73
2021/12/22 05:10:05;;;;;;;47.93;20.40;;;;;;;;;;5070539;28;20028;-72
2021/12/22 05:12:30;;;;;;;42.00;19.10;;;;;;;;;;5072133;28;20031;-73
2021/12/22 05:14:56;;;;;;;56.43;22.07;;;;;;;;;;5071659;28;20029;-74
2021/12/22 05:17:27;;;;;;;45.73;19.57;;;;;;;;;;5071810;28;20503;-74
2021/12/22 05:19:53;;;;;;;46.58;20.85;;;;;;;;;;5070115;28;20036;-74
2021/12/22 05:22:18;;;;;;;44.77;19.13;;;;;;;;;;5071996;28;20024;-73
2021/12/22 05:24:44;;;;;;;40.77;18.87;;;;;;;;;;5071763;28;20537;-72
2021/12/22 05:27:11;;;;;;;50.37;19.23;;;;;;;;;;5071538;28;20024;-71
2021/12/22 05:29:37;;;;;;;46.23;18.47;;;;;;;;;;5071865;28;20383;-72
2021/12/22 05:32:04;;;;;;;51.87;20.77;;;;;;;;;;5071373;28;20024;-73
2021/12/22 05:34:30;;;;;;;47.73;18.53;;;;;;;;;;5070059;28;20051;-73
2021/12/22 05:36:55;;;;;;;51.20;18.90;;;;;;;;;;5071523;28;20028;-73
2021/12/22 05:39:21;;;;;;;53.60;22.77;;;;;;;;;;5070274;28;20086;-73
2021/12/22 05:41:47;;;;;;;50.77;20.03;;;;;;;;;;5071598;28;20039;-71
2021/12/22 05:44:12;;;;;;;49.37;18.30;;;;;;;;;;5053474;28;20067;-72
2021/12/22 05:46:38;;;;;;;44.93;18.77;;;;;;;;;;5070703;28;20115;-72
2021/12/22 05:49:04;;;;;;;43.30;18.67;;;;;;;;;;5070933;28;20024;-72
2021/12/22 05:51:32;;;;;;;40.80;19.40;;;;;;;;;;5071509;28;20504;-73
2021/12/22 05:53:58;;;;;;;39.00;17.87;;;;;;;;;;5070025;28;20039;-73
2021/12/22 05:56:25;;;;;;;47.87;20.17;;;;;;;;;;5070029;28;20028;-72
2021/12/22 05:58:51;;;;;;;49.60;19.20;;;;;;;;;;5053422;28;20396;-72
2021/12/22 06:01:16;;;;;;;39.17;18.37;;;;;;;;;;5070936;28;20225;-72
2021/12/22 06:03:42;;;;;;;46.60;18.60;;;;;;;;;;5069418;28;20115;-73
2021/12/22 06:06:11;;;;;;;45.83;18.03;;;;;;;;;;5069398;28;20058;-73
2021/12/22 06:08:36;;;;;;;57.03;21.00;;;;;;;;;;5069573;28;20078;-73
2021/12/22 06:11:02;;;;;;;47.63;21.10;;;;;;;;;;5070576;28;20444;-71
2021/12/22 06:13:27;;;;;;;42.83;17.20;;;;;;;;;;5069197;28;20033;-72
2021/12/22 06:15:53;;;;;;;44.40;18.20;;;;;;;;;;5068626;28;20051;-72
2021/12/22 06:18:18;;;;;;;53.30;18.97;;;;;;;;;;5070575;28;20028;-73
2021/12/22 06:20:44;;;;;;;50.47;19.03;;;;;;;;;;5070585;28;20033;-73
2021/12/22 06:23:11;;;;;;;45.43;19.50;;;;;;;;;;5070477;28;20036;-72
2021/12/22 06:25:36;;;;;;;40.20;18.37;;;;;;;;;;5069206;28;20362;-74
2021/12/22 06:28:02;;;;;;;51.93;20.80;;;;;;;;;;5068660;28;20028;-74
2021/12/22 06:30:28;;;;;;;50.03;20.47;;;;;;;;;;5068854;28;20024;-72
2021/12/22 06:32:53;;;;;;;51.33;19.07;;;;;;;;;;5068671;28;20507;-73
2021/12/22 06:35:19;;;;;;;44.80;20.33;;;;;;;;;;5069938;28;20300;-73
2021/12/22 06:37:46;;;;;;;47.87;19.80;;;;;;;;;;5069149;28;20492;-73
2021/12/22 06:40:13;;;;;;;41.90;19.07;;;;;;;;;;5070135;28;20032;-73
2021/12/22 06:42:39;;;;;;;47.53;20.20;;;;;;;;;;5070018;28;20024;-72
2021/12/22 06:45:07;;;;;;;44.70;18.17;;;;;;;;;;5068559;28;20028;-73
2021/12/22 06:47:32;;;;;;;48.50;18.77;;;;;;;;;;5068670;28;20476;-72
2021/12/22 06:49:58;;;;;;;37.83;18.47;;;;;;;;;;5068770;28;20119;-73
2021/12/22 06:52:23;;;;;;;49.93;19.33;;;;;;;;;;5068436;28;20031;-73
2021/12/22 06:54:49;;;;;;;63.40;21.87;;;;;;;;;;5069949;28;20028;-74
2021/12/22 06:57:19;;;;;;;47.00;18.43;;;;;;;;;;5069886;28;20020;-72
2021/12/22 06:59:44;;;;;;;48.27;18.90;;;;;;;;;;5069982;28;20021;-73
2021/12/22 07:02:10;;;;;;;44.10;18.80;;;;;;;;;;5068446;28;20020;-73
2021/12/22 07:04:35;;;;;;;54.60;20.03;;;;;;;;;;5068611;28;20020;-74
2021/12/22 07:07:01;;;;;;;63.30;24.10;;;;;;;;;;5069578;28;20496;-72
2021/12/22 07:09:26;;;;;;;41.83;18.67;;;;;;;;;;5069817;28;20025;-72
2021/12/22 07:11:52;;;;;;;50.07;20.03;;;;;;;;;;5068293;28;20031;-73
2021/12/22 07:14:18;;;;;;;46.53;18.47;;;;;;;;;;5069656;28;20430;-72
2021/12/22 07:16:45;;;;;;;46.87;20.43;;;;;;;;;;5070012;28;20583;-73
2021/12/22 07:19:11;;;;;;;49.93;17.97;;;;;;;;;;5068358;28;20147;-73
2021/12/22 07:21:37;;;;;;;48.50;19.63;;;;;;;;;;5069522;28;20259;-74
2021/12/22 07:24:03;;;;;;;47.43;20.33;;;;;;;;;;5068692;28;20043;-73
2021/12/22 07:26:29;;;;;;;49.10;20.57;;;;;;;;;;5067041;28;20031;-72
2021/12/22 07:28:54;;;;;;;45.73;21.20;;;;;;;;;;5069249;28;20024;-72
2021/12/22 07:31:20;;;;;;;49.33;21.90;;;;;;;;;;5067767;28;20128;-72
2021/12/22 07:33:51;;;;;;;37.40;18.40;;;;;;;;;;5068704;28;20457;-73
2021/12/22 07:36:16;;;;;;;49.00;19.63;;;;;;;;;;5066322;28;20028;-72
2021/12/22 07:38:57;;;;;;;47.17;20.43;;;;;;;;;;5069025;28;20116;-73
2021/12/22 07:41:22;;;;;;;49.10;19.00;;;;;;;;;;5068532;28;20047;-73
2021/12/22 07:43:48;;;;;;;50.43;19.60;;;;;;;;;;5069233;28;20033;-74
2021/12/22 07:46:13;;;;;;;51.77;20.97;;;;;;;;;;5067526;28;20028;-73
2021/12/22 07:48:39;;;;;;;52.27;22.37;;;;;;;;;;5069327;28;20056;-74
2021/12/22 07:51:04;;;;;;;46.03;20.40;;;;;;;;;;5069264;28;20103;-74
2021/12/22 07:53:30;;;;;;;54.37;20.27;;;;;;;;;;5087514;28;20091;-73
2021/12/22 07:55:55;;;;;;;52.33;21.23;;;;;;;;;;5087312;28;20032;-73
2021/12/22 07:58:23;;;;;;;45.00;19.77;;;;;;;;;;5089655;28;20077;-73
2021/12/22 08:00:49;;;;;;;52.13;20.33;;;;;;;;;;5072837;28;20476;-73
2021/12/22 08:03:15;;;;;;;44.67;19.77;;;;;;;;;;5067481;28;20028;-72
2021/12/22 08:05:41;;;;;;;57.40;20.80;;;;;;;;;;5067488;28;20389;-73
2021/12/22 08:08:07;;;;;;;49.63;20.97;;;;;;;;;;5067676;28;20033;-73
2021/12/22 08:10:33;;;;;;;46.47;19.83;;;;;;;;;;5067371;28;20032;-73
2021/12/22 08:12:59;;;;;;;46.27;19.30;;;;;;;;;;5069219;28;20132;-74
2021/12/22 08:15:25;;;;;;;50.10;21.67;;;;;;;;;;5068725;28;20159;-73
2021/12/22 08:17:52;;;;;;;49.70;21.23;;;;;;;;;;5067615;28;20020;-73
2021/12/22 08:20:19;;;;;;;53.90;21.07;;;;;;;;;;5066775;28;20024;-73
2021/12/22 08:22:45;;;;;;;47.67;19.80;;;;;;;;;;5062416;28;20174;-74
2021/12/22 08:25:11;;;;;;;50.53;21.27;;;;;;;;;;5062357;28;20195;-74
2021/12/22 08:27:37;;;;;;;83.07;24.27;;;;;;;;;;5066992;28;20043;-73
2021/12/22 08:30:04;;;;;;;57.30;21.43;;;;;;;;;;5063446;28;20052;-74
2021/12/22 08:32:30;;;;;;;50.70;22.10;;;;;;;;;;5057803;28;20113;-72
2021/12/22 08:34:56;;;;;;;52.23;20.27;;;;;;;;;;5066578;28;20476;-74
2021/12/22 08:40:10;;;;;;;52.40;22.87;;;;;;;;;;5067327;28;20358;-73
2021/12/22 08:42:35;;;;;;;59.43;23.97;;;;;;;;;;5062600;28;20036;-73
2021/12/22 08:45:02;;;;;;;58.30;23.13;;;;;;;;;;5066392;28;20681;-74
2021/12/22 08:47:27;;;;;;;55.90;23.00;;;;;;;;;;5048570;28;20391;-74
2021/12/22 08:49:53;;;;;;;58.30;22.77;;;;;;;;;;5065703;28;20043;-73
2021/12/22 08:52:18;;;;;;;53.27;23.27;;;;;;;;;;5050007;28;20098;-73
2021/12/22 08:54:45;;;;;;;47.63;19.33;;;;;;;;;;5058483;28;20439;-74
2021/12/22 08:57:10;;;;;;;55.70;22.47;;;;;;;;;;5069441;28;20028;-73
2021/12/22 08:59:36;;;;;;;58.63;21.80;;;;;;;;;;5052896;28;20344;-74
2021/12/22 09:02:04;;;;;;;49.77;23.67;;;;;;;;;;5077786;28;20078;-74
2021/12/22 09:04:29;;;;;;;65.40;23.97;;;;;;;;;;5069297;28;20051;-74
2021/12/22 09:06:55;;;;;;;52.50;22.87;;;;;;;;;;5085911;28;20040;-73
2021/12/22 09:09:22;;;;;;;53.30;22.27;;;;;;;;;;5060864;28;20423;-74
2021/12/22 09:11:48;;;;;;;47.60;23.37;;;;;;;;;;5068413;28;20051;-73
2021/12/22 09:14:16;;;;;;;53.70;22.83;;;;;;;;;;5068395;28;20032;-75
2021/12/22 09:16:42;;;;;;;51.83;22.53;;;;;;;;;;5067397;28;20329;-75
2021/12/22 09:19:08;;;;;;;48.07;21.17;;;;;;;;;;5069418;28;20028;-74
2021/12/22 09:21:34;;;;;;;53.30;20.73;;;;;;;;;;5088686;28;20400;-73
2021/12/22 09:24:00;;;;;;;48.77;20.97;;;;;;;;;;5070516;28;20025;-74
2021/12/22 09:26:26;;;;;;;44.27;19.43;;;;;;;;;;5069808;28;20017;-73
2021/12/22 09:28:54;;;;;;;47.73;20.33;;;;;;;;;;5075193;28;20036;-74
2021/12/22 09:31:20;;;;;;;48.73;21.80;;;;;;;;;;5074366;28;20028;-75
2021/12/22 09:33:46;;;;;;;56.63;23.10;;;;;;;;;;5087324;28;20115;-75
2021/12/22 09:36:14;;;;;;;51.70;24.00;;;;;;;;;;5075158;28;20646;-73
2021/12/22 09:38:41;;;;;;;57.40;23.37;;;;;;;;;;5073632;28;20059;-74
2021/12/22 09:41:08;;;;;;;45.23;21.87;;;;;;;;;;5067621;28;20028;-73
2021/12/22 09:43:34;;;;;;;52.40;22.23;;;;;;;;;;5091776;28;20484;-73
2021/12/22 09:46:05;;;;;;;52.70;23.77;;;;;;;;;;5085024;28;20557;-74
2021/12/22 09:53:28;;;;;;;52.00;23.77;;;;;;;;;;5069421;28;20427;-73
2021/12/22 09:55:55;;;;;;;52.30;22.27;;;;;;;;;;5080984;28;20044;-73
2021/12/22 09:58:22;;;;;;;58.00;22.43;;;;;;;;;;5067494;28;20024;-73
2021/12/22 10:00:48;;;;;;;56.37;22.97;;;;;;;;;;5067879;28;20039;-73
2021/12/22 10:03:15;;;;;;;51.13;24.07;;;;;;;;;;5068692;28;20522;-72
2021/12/22 10:05:43;;;;;;;53.90;24.13;;;;;;;;;;5068954;28;20031;-73
2021/12/22 10:08:12;;;;;;;42.67;21.50;;;;;;;;;;5075660;28;20036;-74
2021/12/22 10:10:40;;;;;;;41.57;21.27;;;;;;;;;;5067148;28;20040;-74
2021/12/22 10:13:06;;;;;;;47.90;19.23;;;;;;;;;;5067402;28;20040;-75
2021/12/22 10:15:34;;;;;;;47.67;20.63;;;;;;;;;;5068427;28;20064;-74
2021/12/22 10:18:18;;;;;;;40.50;19.03;;;;;;;;;;5068002;28;20048;-74
2021/12/22 10:20:47;;;;;;;53.50;21.03;;;;;;;;;;5078052;28;20047;-73
2021/12/22 10:23:27;;;;;;;46.07;19.37;;;;;;;;;;5067532;28;20040;-73
2021/12/22 10:25:59;;;;;;;35.60;17.20;;;;;;;;;;5067068;28;20029;-74
2021/12/22 10:28:26;;;;;;;;;;;;;;;;;;5063631;28;20577;-73
2021/12/22 10:31:01;;;;;;;34.30;16.07;;;;;;;;;;5062482;28;19956;-73
2021/12/22 10:33:31;;;;;;;43.00;18.00;;;;;;;;;;5066248;28;20052;-73
2021/12/22 10:36:10;;;;;;;37.60;16.50;;;;;;;;;;5066840;28;20565;-72
2021/12/22 10:38:36;;;;;;;36.00;16.47;;;;;;;;;;5068670;28;20048;-73
2021/12/22 10:41:07;;;;;;;68.83;24.70;;;;;;;;;;5069256;28;20036;-73
2021/12/22 10:43:38;;;;;;;41.60;16.25;;;;;;;;;;5067518;28;20029;-73
2021/12/22 10:46:05;;;;;;;34.83;15.43;;;;;;;;;;5053325;28;20020;-74
2021/12/22 10:51:28;;;;;;;32.30;15.10;;;;;;;;;;5069863;28;20078;-75
2021/12/22 10:53:54;;;;;;;40.53;15.90;;;;;;;;;;5069818;28;20498;-75
2021/12/22 10:56:35;;;;;;;40.30;15.87;;;;;;;;;;5072934;28;20100;-73
2021/12/22 10:59:04;;;;;;;35.70;17.00;;;;;;;;;;5067991;28;20036;-74
2021/12/22 11:01:30;;;;;;;33.83;14.10;;;;;;;;;;5067409;28;20029;-74
2021/12/22 11:04:03;;;;;;;41.80;16.53;;;;;;;;;;5067205;28;20086;-72
2021/12/22 11:06:30;;;;;;;35.53;14.67;;;;;;;;;;5068771;28;20036;-73
2021/12/22 11:09:10;;;;;;;47.17;17.33;;;;;;;;;;5067160;28;20036;-73
2021/12/22 11:11:41;;;;;;;48.20;17.07;;;;;;;;;;5067317;28;20028;-73
2021/12/22 11:14:10;;;;;;;38.95;16.90;;;;;;;;;;5061256;28;20047;-72
2021/12/22 11:16:56;;;;;;;42.30;18.23;;;;;;;;;;5067866;28;20090;-72
2021/12/22 11:19:23;;;;;;;39.67;18.57;;;;;;;;;;5068247;28;20021;-72
2021/12/22 11:22:00;;;;;;;41.50;17.90;;;;;;;;;;5068270;28;20024;-74
2021/12/22 11:24:27;;;;;;;34.83;17.40;;;;;;;;;;5066726;28;20048;-73
2021/12/22 11:26:53;;;;;;;45.20;19.17;;;;;;;;;;5067311;28;20032;-73
2021/12/22 11:29:21;;;;;;;41.13;16.73;;;;;;;;;;5067205;28;20034;-74
2021/12/22 11:31:48;;;;;;;41.93;18.30;;;;;;;;;;5067696;28;20056;-73
2021/12/22 11:34:16;;;;;;;44.83;17.97;;;;;;;;;;5064626;28;20052;-72
2021/12/22 11:36:46;;;;;;;35.63;15.30;;;;;;;;;;5063385;28;20094;-73
2021/12/22 11:39:12;;;;;;;53.17;20.20;;;;;;;;;;5070840;28;20044;-73
2021/12/22 11:41:43;;;;;;;45.40;16.87;;;;;;;;;;5065512;28;20572;-73
2021/12/22 11:44:11;;;;;;;42.10;18.02;;;;;;;;;;5065366;28;20093;-73
2021/12/22 11:46:39;;;;;;;38.77;15.00;;;;;;;;;;5077085;28;20055;-73
2021/12/22 11:49:06;;;;;;;41.57;15.93;;;;;;;;;;5075636;28;20025;-75
2021/12/22 11:51:34;;;;;;;37.90;15.47;;;;;;;;;;5067107;28;20055;-74
2021/12/22 11:54:09;;;;;;;35.70;15.17;;;;;;;;;;5068313;28;20059;-73
2021/12/22 11:56:39;;;;;;;27.60;14.23;;;;;;;;;;5066271;28;20440;-74
2021/12/22 11:59:06;;;;;;;40.97;15.03;;;;;;;;;;5063154;28;20029;-74
2021/12/22 12:01:32;;;;;;;31.53;14.37;;;;;;;;;;5065806;28;20573;-73
2021/12/22 12:04:12;;;;;;;38.40;15.40;;;;;;;;;;5067489;28;20029;-74
2021/12/22 12:06:51;;;;;;;35.13;14.63;;;;;;;;;;5067732;28;20032;-74
2021/12/22 12:09:22;;;;;;;33.87;14.23;;;;;;;;;;5070427;28;20091;-73
2021/12/22 12:11:55;;;;;;;45.67;16.70;;;;;;;;;;5066004;28;20025;-73
2021/12/22 12:14:32;;;;;;;35.47;13.90;;;;;;;;;;5066500;28;20024;-72
2021/12/22 12:23:32;;;;;;;26.52;10.27;;;;;;;;;;5074298;28;20086;-74
2021/12/22 12:26:03;;;;;;;28.70;11.83;;;;;;;;;;5066999;28;20134;-73
2021/12/22 12:28:30;;;;;;;36.37;12.10;;;;;;;;;;5065860;28;20059;-73
2021/12/22 12:30:59;;;;;;;29.60;10.57;;;;;;;;;;5069975;28;20484;-73
2021/12/22 12:33:27;;;;;;;23.87;11.30;;;;;;;;;;5081619;28;20049;-72
2021/12/22 12:36:08;;;;;;;23.07;12.33;;;;;;;;;;5071492;28;20147;-73
2021/12/22 12:38:40;;;;;;;28.50;12.83;;;;;;;;;;5091973;28;20036;-74
2021/12/22 12:41:13;;;;;;;26.70;11.90;;;;;;;;;;5091648;28;20380;-73
2021/12/22 12:46:20;;;;;;;28.37;13.20;;;;;;;;;;5076768;28;20028;-73
2021/12/22 12:48:47;;;;;;;28.55;12.30;;;;;;;;;;5072763;28;20142;-74
2021/12/22 12:51:30;;;;;;;24.60;10.87;;;;;;;;;;5069392;28;20055;-73
2021/12/22 12:54:09;;;;;;;22.93;11.77;;;;;;;;;;5070742;28;20046;-75
2021/12/22 12:56:38;;;;;;;28.43;11.30;;;;;;;;;;5072801;28;20067;-73
2021/12/22 12:59:12;;;;;;;30.43;11.97;;;;;;;;;;5091032;28;20034;-73
2021/12/22 13:01:46;;;;;;;21.63;11.53;;;;;;;;;;5068154;28;20099;-73
2021/12/22 13:04:26;;;;;;;23.40;11.23;;;;;;;;;;5073343;28;20391;-73
2021/12/22 13:07:17;;;;;;;21.97;10.73;;;;;;;;;;5056508;28;20561;-71
2021/12/22 13:09:44;;;;;;;24.77;9.70;;;;;;;;;;5072380;28;20099;-74
2021/12/22 13:18:10;;;;;;;42.87;11.47;;;;;;;;;;5072406;28;20071;-73
2021/12/22 13:20:41;;;;;;;32.63;11.47;;;;;;;;;;5060701;28;20123;-72
2021/12/22 13:23:20;;;;;;;20.93;10.77;;;;;;;;;;5068929;28;20017;-74
2021/12/22 13:25:51;;;;;;;35.37;10.87;;;;;;;;;;5069452;28;20066;-72
2021/12/22 13:28:26;;;;;;;30.83;10.30;;;;;;;;;;5068441;28;20024;-73
2021/12/22 13:31:06;;;;;;;25.10;9.50;;;;;;;;;;5052132;28;20062;-73
2021/12/22 13:33:54;;;;;;;27.23;10.03;;;;;;;;;;5070922;28;20079;-74
2021/12/22 13:36:20;;;;;;;28.00;11.13;;;;;;;;;;5077943;28;20503;-74
2021/12/22 13:38:54;;;;;;;32.37;10.73;;;;;;;;;;5067704;28;20028;-74
2021/12/22 13:41:29;;;;;;;25.67;11.77;;;;;;;;;;5069369;28;20112;-74
2021/12/22 13:44:01;;;;;;;25.40;10.73;;;;;;;;;;5049537;28;20094;-73
2021/12/22 13:46:32;;;;;;;22.65;8.82;;;;;;;;;;5068663;28;20046;-73
2021/12/22 13:49:04;;;;;;;22.93;9.30;;;;;;;;;;5085081;28;20032;-73
2021/12/22 13:51:51;;;;;;;15.93;8.10;;;;;;;;;;5062318;28;20079;-75
2021/12/22 13:54:24;;;;;;;13.57;6.50;;;;;;;;;;5069889;28;20523;-74
2021/12/22 13:56:51;;;;;;;14.07;6.53;;;;;;;;;;5069186;28;20024;-75
2021/12/22 13:59:23;;;;;;;17.23;7.33;;;;;;;;;;5068470;28;20028;-74
2021/12/22 14:01:50;;;;;;;22.20;7.80;;;;;;;;;;5069935;28;20031;-73
2021/12/22 14:04:27;;;;;;;24.00;9.50;;;;;;;;;;5079643;28;20038;-74
2021/12/22 14:06:55;;;;;;;21.53;7.70;;;;;;;;;;5083911;28;20115;-73
2021/12/22 14:09:25;;;;;;;18.27;8.00;;;;;;;;;;5069332;28;20361;-74
2021/12/22 14:11:57;;;;;;;33.60;10.87;;;;;;;;;;5081055;28;20510;-74
2021/12/22 14:14:26;;;;;;;21.93;7.93;;;;;;;;;;5069334;28;20025;-74
2021/12/22 14:17:05;;;;;;;26.73;8.17;;;;;;;;;;5069367;28;20028;-73
2021/12/22 14:19:33;;;;;;;16.27;7.57;;;;;;;;;;5048314;28;20111;-74
2021/12/22 14:22:13;;;;;;;14.83;6.23;;;;;;;;;;5071383;28;20031;-74
2021/12/22 14:24:42;;;;;;;16.77;7.77;;;;;;;;;;5090245;28;20494;-74
2021/12/22 14:27:12;;;;;;;25.90;7.30;;;;;;;;;;5087940;28;20569;-73
2021/12/22 14:29:52;;;;;;;15.40;6.37;;;;;;;;;;5087483;28;20042;-74
2021/12/22 14:32:29;;;;;;;24.60;6.27;;;;;;;;;;5065561;28;20418;-73
2021/12/22 14:35:11;;;;;;;11.90;5.50;;;;;;;;;;5071424;28;20715;-74
2021/12/22 14:37:43;;;;;;;19.98;6.20;;;;;;;;;;5061012;28;20032;-73
2021/12/22 14:40:18;;;;;;;12.50;5.88;;;;;;;;;;5067477;28;20411;-74
2021/12/22 14:43:08;;;;;;;13.73;6.30;;;;;;;;;;5068793;28;20050;-74
2021/12/22 14:45:44;;;;;;;15.33;5.97;;;;;;;;;;5058485;28;20029;-73
2021/12/22 14:48:19;;;;;;;8.73;5.20;;;;;;;;;;5076252;28;20036;-74
2021/12/22 14:51:02;;;;;;;14.70;6.27;;;;;;;;;;5085394;28;20081;-74
2021/12/22 14:53:34;;;;;;;21.27;7.03;;;;;;;;;;5064339;28;20031;-73
2021/12/22 14:56:02;;;;;;;18.20;8.27;;;;;;;;;;5067602;28;20028;-73
2021/12/22 14:58:28;;;;;;;31.87;10.93;;;;;;;;;;5069211;28;20028;-73
2021/12/22 15:00:55;;;;;;;19.47;6.73;;;;;;;;;;5067760;28;20024;-73
2021/12/22 15:03:21;;;;;;;13.83;6.00;;;;;;;;;;5065575;28;20463;-73
2021/12/22 15:05:52;;;;;;;33.53;7.37;;;;;;;;;;5065588;28;20030;-74